createdAt,value
2016-02-29T00:00:01.590Z,0
2016-02-29T00:01:01.607Z,0
2016-02-29T00:02:01.595Z,0
2016-02-29T00:03:01.613Z,0
2016-02-29T00:04:01.600Z,0
2016-02-29T00:05:01.618Z,0
2016-02-29T00:06:01.653Z,0
2016-02-29T00:07:01.623Z,0
2016-02-29T00:08:01.642Z,0
2016-02-29T00:09:01.629Z,0
2016-02-29T00:10:01.695Z,0
2016-02-29T00:11:01.651Z,0
2016-02-29T00:12:01.669Z,0
2016-02-29T00:13:01.656Z,0
2016-02-29T00:14:01.706Z,0
2016-02-29T00:15:01.677Z,0
2016-02-29T00:19:22.250Z,0
2016-02-29T00:19:50.953Z,0
2016-02-29T00:20:50.941Z,0
2016-02-29T00:21:50.974Z,0
2016-02-29T00:22:50.930Z,0
2016-02-29T00:23:50.949Z,0
2016-02-29T00:24:50.966Z,0
2016-02-29T00:25:50.969Z,0
2016-02-29T00:26:51.253Z,0
2016-02-29T00:27:50.975Z,0
2016-02-29T00:28:50.977Z,0
2016-02-29T00:29:51.001Z,0
2016-02-29T00:30:50.988Z,0
2016-02-29T00:31:50.990Z,0
2016-02-29T00:32:51.009Z,0
2016-02-29T00:33:50.995Z,0
2016-02-29T00:34:51.030Z,0
2016-02-29T00:35:51.064Z,0
2016-02-29T00:36:51.050Z,0
2016-02-29T00:37:51.053Z,0
2016-02-29T00:38:51.041Z,0
2016-02-29T00:39:51.043Z,0
2016-02-29T00:40:51.061Z,0
2016-02-29T00:41:51.064Z,0
2016-02-29T00:42:51.083Z,0
2016-02-29T00:43:51.085Z,0
2016-02-29T00:44:51.088Z,0
2016-02-29T00:49:31.913Z,0
2016-02-29T00:49:44.570Z,0
2016-02-29T00:50:44.588Z,0
2016-02-29T00:51:44.576Z,0
2016-02-29T00:52:44.421Z,0
2016-02-29T00:53:44.596Z,0
2016-02-29T00:54:44.599Z,0
2016-02-29T00:55:44.601Z,0
2016-02-29T00:56:44.620Z,0
2016-02-29T00:57:44.623Z,0
2016-02-29T00:58:44.626Z,0
2016-02-29T00:59:44.612Z,0
2016-02-29T01:00:44.631Z,0
2016-02-29T01:01:44.648Z,0
2016-02-29T01:02:44.901Z,0
2016-02-29T01:03:44.654Z,0
2016-02-29T01:04:44.657Z,0
2016-02-29T01:05:44.659Z,0
2016-02-29T01:06:44.678Z,0
2016-02-29T01:07:44.681Z,0
2016-02-29T01:08:44.699Z,0
2016-02-29T01:09:44.686Z,0
2016-02-29T01:10:44.672Z,0
2016-02-29T01:11:44.707Z,0
2016-02-29T01:12:44.725Z,0
2016-02-29T01:13:44.728Z,0
2016-02-29T01:14:44.716Z,0
2016-02-29T01:16:17.533Z,0
2016-02-29T01:16:44.721Z,0
2016-02-29T01:17:44.786Z,0
2016-02-29T01:18:44.742Z,0
2016-02-29T01:19:44.744Z,0
2016-02-29T01:20:44.746Z,0
2016-02-29T01:21:44.750Z,0
2016-02-29T01:22:44.784Z,0
2016-02-29T01:23:44.755Z,0
2016-02-29T01:24:44.758Z,0
2016-02-29T01:25:44.760Z,0
2016-02-29T01:26:44.810Z,0
2016-02-29T01:27:44.766Z,0
2016-02-29T01:28:44.801Z,0
2016-02-29T01:29:44.802Z,0
2016-02-29T01:30:44.820Z,0
2016-02-29T01:31:44.808Z,0
2016-02-29T01:32:44.795Z,0
2016-02-29T01:33:44.844Z,0
2016-02-29T01:34:44.082Z,0
2016-02-29T01:35:44.834Z,0
2016-02-29T01:36:44.837Z,0
2016-02-29T01:37:44.825Z,0
2016-02-29T01:38:44.702Z,0
2016-02-29T01:39:44.844Z,0
2016-02-29T01:40:44.878Z,0
2016-02-29T01:41:44.850Z,0
2016-02-29T01:42:44.916Z,0
2016-02-29T01:43:44.886Z,0
2016-02-29T01:44:44.874Z,0
2016-02-29T01:48:43.729Z,0
2016-02-29T01:49:34.153Z,0
2016-02-29T01:50:34.140Z,0
2016-02-29T01:51:34.143Z,0
2016-02-29T01:52:34.161Z,0
2016-02-29T01:53:34.164Z,0
2016-02-29T01:54:34.199Z,0
2016-02-29T01:55:34.185Z,0
2016-02-29T01:56:34.188Z,0
2016-02-29T01:57:34.175Z,0
2016-02-29T01:58:34.193Z,0
2016-02-29T01:59:34.212Z,0
2016-02-29T02:00:34.212Z,0
2016-02-29T02:01:34.200Z,0
2016-02-29T02:02:34.188Z,0
2016-02-29T02:03:34.175Z,0
2016-02-29T02:04:34.163Z,0
2016-02-29T02:05:34.167Z,0
2016-02-29T02:06:34.149Z,0
2016-02-29T02:07:34.147Z,0
2016-02-29T02:08:34.144Z,0
2016-02-29T02:09:34.141Z,0
2016-02-29T02:10:34.139Z,0
2016-02-29T02:11:34.187Z,0
2016-02-29T02:12:34.172Z,0
2016-02-29T02:13:34.141Z,0
2016-02-29T02:14:34.189Z,0
2016-02-29T02:15:55.752Z,0
2016-02-29T02:16:34.176Z,0
2016-02-29T02:17:34.256Z,0
2016-02-29T02:18:34.180Z,0
2016-02-29T02:19:34.181Z,0
2016-02-29T02:20:34.184Z,0
2016-02-29T02:21:34.202Z,0
2016-02-29T02:22:34.206Z,0
2016-02-29T02:23:34.223Z,0
2016-02-29T02:24:34.226Z,0
2016-02-29T02:25:34.245Z,0
2016-02-29T02:26:34.247Z,0
2016-02-29T02:27:34.219Z,0
2016-02-29T02:28:34.236Z,0
2016-02-29T02:29:34.255Z,0
2016-02-29T02:30:34.241Z,0
2016-02-29T02:31:34.245Z,0
2016-02-29T02:32:34.264Z,0
2016-02-29T02:33:34.266Z,0
2016-02-29T02:34:34.269Z,0
2016-02-29T02:35:34.271Z,0
2016-02-29T02:36:34.274Z,0
2016-02-29T02:37:34.292Z,0
2016-02-29T02:38:34.310Z,0
2016-02-29T02:39:34.329Z,0
2016-02-29T02:40:34.300Z,0
2016-02-29T02:41:34.302Z,0
2016-02-29T02:42:34.305Z,0
2016-02-29T02:43:34.168Z,0
2016-02-29T02:44:34.343Z,0
2016-02-29T02:47:28.538Z,0
2016-02-29T02:47:41.194Z,0
2016-02-29T02:48:41.196Z,0
2016-02-29T02:49:41.214Z,0
2016-02-29T02:50:41.218Z,0
2016-02-29T02:51:41.220Z,0
2016-02-29T02:52:41.239Z,0
2016-02-29T02:53:41.257Z,0
2016-02-29T02:54:41.228Z,0
2016-02-29T02:55:41.231Z,0
2016-02-29T02:56:41.297Z,0
2016-02-29T02:57:41.267Z,0
2016-02-29T02:58:41.256Z,0
2016-02-29T02:59:41.320Z,0
2016-02-29T03:00:41.292Z,0
2016-02-29T03:01:41.294Z,0
2016-02-29T03:02:41.281Z,0
2016-02-29T03:03:41.300Z,0
2016-02-29T03:04:41.319Z,0
2016-02-29T03:05:41.321Z,0
2016-02-29T03:06:41.308Z,0
2016-02-29T03:07:41.327Z,0
2016-02-29T03:08:41.329Z,0
2016-02-29T03:09:41.332Z,0
2016-02-29T03:10:41.335Z,0
2016-02-29T03:11:41.352Z,0
2016-02-29T03:12:41.355Z,0
2016-02-29T03:13:41.343Z,0
2016-02-29T03:14:41.360Z,0
2016-02-29T03:19:42.280Z,0
2016-02-29T03:19:54.952Z,0
2016-02-29T03:20:54.939Z,0
2016-02-29T03:21:54.957Z,0
2016-02-29T03:22:54.991Z,0
2016-02-29T03:23:54.963Z,0
2016-02-29T03:24:54.965Z,0
2016-02-29T03:25:54.984Z,0
2016-02-29T03:26:54.986Z,0
2016-02-29T03:27:54.989Z,0
2016-02-29T03:28:55.008Z,0
2016-02-29T03:29:54.995Z,0
2016-02-29T03:30:54.998Z,0
2016-02-29T03:31:55.016Z,0
2016-02-29T03:32:55.019Z,0
2016-02-29T03:33:55.021Z,0
2016-02-29T03:34:55.040Z,0
2016-02-29T03:35:55.042Z,0
2016-02-29T03:36:55.045Z,0
2016-02-29T03:37:55.063Z,0
2016-02-29T03:38:55.066Z,0
2016-02-29T03:39:55.052Z,0
2016-02-29T03:40:55.055Z,0
2016-02-29T03:41:55.073Z,0
2016-02-29T03:42:55.091Z,0
2016-02-29T03:43:55.095Z,0
2016-02-29T03:44:55.097Z,0
2016-02-29T03:49:05.562Z,0
2016-02-29T03:49:44.361Z,0
2016-02-29T03:50:44.348Z,0
2016-02-29T03:51:44.382Z,0
2016-02-29T03:52:44.384Z,0
2016-02-29T03:53:44.388Z,0
2016-02-29T03:54:44.390Z,0
2016-02-29T03:55:44.393Z,0
2016-02-29T03:56:44.411Z,0
2016-02-29T03:57:44.398Z,0
2016-02-29T03:58:44.401Z,0
2016-02-29T03:59:44.404Z,0
2016-02-29T04:00:44.437Z,0
2016-02-29T04:01:44.425Z,0
2016-02-29T04:02:44.428Z,0
2016-02-29T04:03:44.446Z,0
2016-02-29T04:04:44.433Z,0
2016-02-29T04:05:44.295Z,0
2016-02-29T04:06:44.454Z,0
2016-02-29T04:07:44.472Z,0
2016-02-29T04:08:44.490Z,0
2016-02-29T04:09:44.477Z,0
2016-02-29T04:10:44.324Z,0
2016-02-29T04:11:44.326Z,0
2016-02-29T04:12:44.501Z,0
2016-02-29T04:13:44.504Z,0
2016-02-29T04:14:44.553Z,0
2016-02-29T04:20:07.723Z,0
2016-02-29T04:20:20.413Z,0
2016-02-29T04:21:20.385Z,0
2016-02-29T04:22:20.418Z,0
2016-02-29T04:23:20.406Z,0
2016-02-29T04:24:20.423Z,0
2016-02-29T04:25:20.426Z,0
2016-02-29T04:26:20.414Z,0
2016-02-29T04:27:20.417Z,0
2016-02-29T04:28:20.420Z,0
2016-02-29T04:29:20.438Z,0
2016-02-29T04:30:20.425Z,0
2016-02-29T04:31:20.444Z,0
2016-02-29T04:32:20.446Z,0
2016-02-29T04:33:20.465Z,0
2016-02-29T04:34:20.451Z,0
2016-02-29T04:35:20.471Z,0
2016-02-29T04:36:20.457Z,0
2016-02-29T04:37:20.491Z,0
2016-02-29T04:38:20.493Z,0
2016-02-29T04:39:20.496Z,0
2016-02-29T04:40:20.499Z,0
2016-02-29T04:41:20.501Z,0
2016-02-29T04:42:20.504Z,0
2016-02-29T04:43:20.523Z,0
2016-02-29T04:44:20.541Z,0
2016-02-29T04:48:14.006Z,0
2016-02-29T04:48:26.662Z,0
2016-02-29T04:49:26.680Z,0
2016-02-29T04:50:26.683Z,0
2016-02-29T04:51:26.669Z,0
2016-02-29T04:52:26.672Z,0
2016-02-29T04:53:26.691Z,0
2016-02-29T04:54:26.693Z,0
2016-02-29T04:55:26.711Z,0
2016-02-29T04:56:26.714Z,0
2016-02-29T04:57:26.748Z,0
2016-02-29T04:58:26.735Z,0
2016-02-29T04:59:26.738Z,0
2016-02-29T05:00:26.724Z,0
2016-02-29T05:01:26.728Z,0
2016-02-29T05:02:26.730Z,0
2016-02-29T05:03:26.608Z,0
2016-02-29T05:04:26.751Z,0
2016-02-29T05:05:26.441Z,0
2016-02-29T05:06:26.760Z,0
2016-02-29T05:07:26.777Z,0
2016-02-29T05:08:26.796Z,0
2016-02-29T05:09:26.783Z,0
2016-02-29T05:10:26.785Z,0
2016-02-29T05:11:26.788Z,0
2016-02-29T05:12:26.822Z,0
2016-02-29T05:13:26.809Z,0
2016-02-29T05:14:26.797Z,0
2016-02-29T05:18:20.995Z,0
2016-02-29T05:19:16.091Z,0
2016-02-29T05:20:16.094Z,0
2016-02-29T05:21:16.081Z,0
2016-02-29T05:22:16.083Z,0
2016-02-29T05:23:15.352Z,0
2016-02-29T05:24:16.105Z,0
2016-02-29T05:25:16.107Z,0
2016-02-29T05:26:16.110Z,0
2016-02-29T05:27:16.206Z,0
2016-02-29T05:28:16.131Z,0
2016-02-29T05:29:16.149Z,0
2016-02-29T05:30:16.136Z,0
2016-02-29T05:31:16.138Z,0
2016-02-29T05:32:16.157Z,0
2016-02-29T05:33:16.177Z,0
2016-02-29T05:34:16.163Z,0
2016-02-29T05:35:16.166Z,0
2016-02-29T05:36:16.184Z,0
2016-02-29T05:37:16.187Z,0
2016-02-29T05:38:16.174Z,0
2016-02-29T05:39:16.177Z,0
2016-02-29T05:40:16.195Z,0
2016-02-29T05:41:16.198Z,0
2016-02-29T05:42:16.262Z,0
2016-02-29T05:43:16.235Z,0
2016-02-29T05:44:16.220Z,0
2016-02-29T05:48:10.432Z,0
2016-02-29T05:48:23.092Z,0
2016-02-29T05:49:23.110Z,0
2016-02-29T05:50:23.112Z,0
2016-02-29T05:51:23.100Z,0
2016-02-29T05:52:23.118Z,0
2016-02-29T05:53:23.120Z,0
2016-02-29T05:54:23.123Z,0
2016-02-29T05:55:23.141Z,0
2016-02-29T05:56:23.128Z,0
2016-02-29T05:57:23.165Z,0
2016-02-29T05:58:23.155Z,0
2016-02-29T05:59:23.177Z,0
2016-02-29T06:00:23.041Z,0
2016-02-29T06:01:25.803Z,0
2016-02-29T06:02:23.041Z,0
2016-02-29T06:03:23.169Z,0
2016-02-29T06:04:23.202Z,0
2016-02-29T06:05:23.206Z,0
2016-02-29T06:06:23.052Z,0
2016-02-29T06:07:23.195Z,0
2016-02-29T06:08:23.213Z,0
2016-02-29T06:09:23.216Z,0
2016-02-29T06:10:23.219Z,0
2016-02-29T06:11:23.253Z,0
2016-02-29T06:12:23.130Z,0
2016-02-29T06:13:23.243Z,0
2016-02-29T06:14:23.245Z,0
2016-02-29T06:18:48.749Z,0
2016-02-29T06:19:01.436Z,0
2016-02-29T06:20:01.407Z,0
2016-02-29T06:21:01.410Z,0
2016-02-29T06:22:01.412Z,0
2016-02-29T06:23:01.415Z,0
2016-02-29T06:24:01.434Z,0
2016-02-29T06:25:01.437Z,0
2016-02-29T06:26:01.423Z,0
2016-02-29T06:27:01.442Z,0
2016-02-29T06:28:01.444Z,0
2016-02-29T06:29:01.462Z,0
2016-02-29T06:30:01.481Z,0
2016-02-29T06:31:01.296Z,0
2016-02-29T06:32:01.486Z,0
2016-02-29T06:33:01.504Z,5
2016-02-29T06:34:01.491Z,5
2016-02-29T06:35:01.494Z,5
2016-02-29T06:36:01.481Z,5
2016-02-29T06:37:01.500Z,5
2016-02-29T06:38:01.503Z,5
2016-02-29T06:39:01.520Z,5
2016-02-29T06:40:01.523Z,5
2016-02-29T06:41:01.525Z,5
2016-02-29T06:42:01.544Z,5
2016-02-29T06:43:01.547Z,5
2016-02-29T06:44:01.566Z,5
2016-02-29T06:45:01.552Z,5
2016-02-29T06:46:54.135Z,10
2016-02-29T06:47:06.791Z,10
2016-02-29T06:48:06.795Z,10
2016-02-29T06:49:06.797Z,15
2016-02-29T06:50:06.800Z,15
2016-02-29T06:51:06.802Z,15
2016-02-29T06:52:06.805Z,15
2016-02-29T06:53:06.824Z,15
2016-02-29T06:54:06.873Z,20
2016-02-29T06:55:06.829Z,20
2016-02-29T06:56:06.832Z,20
2016-02-29T06:57:06.851Z,20
2016-02-29T06:58:06.837Z,20
2016-02-29T06:59:06.840Z,20
2016-02-29T07:00:06.873Z,25
2016-02-29T07:01:06.877Z,25
2016-02-29T07:02:06.879Z,25
2016-02-29T07:03:06.882Z,25
2016-02-29T07:04:06.884Z,30
2016-02-29T07:05:06.887Z,25
2016-02-29T07:06:06.890Z,30
2016-02-29T07:07:06.908Z,30
2016-02-29T07:08:06.911Z,30
2016-02-29T07:09:06.914Z,30
2016-02-29T07:10:06.916Z,30
2016-02-29T07:11:06.919Z,30
2016-02-29T07:12:06.938Z,30
2016-02-29T07:13:06.924Z,35
2016-02-29T07:14:07.036Z,35
2016-02-29T07:15:06.946Z,35
2016-02-29T07:19:47.756Z,40
2016-02-29T07:20:00.413Z,40
2016-02-29T07:21:00.430Z,40
2016-02-29T07:22:00.433Z,40
2016-02-29T07:23:00.435Z,40
2016-02-29T07:24:00.470Z,40
2016-02-29T07:25:00.457Z,45
2016-02-29T07:26:00.459Z,45
2016-02-29T07:27:00.463Z,45
2016-02-29T07:28:00.481Z,45
2016-02-29T07:29:00.484Z,45
2016-02-29T07:30:00.470Z,45
2016-02-29T07:31:00.473Z,45
2016-02-29T07:32:00.492Z,50
2016-02-29T07:33:00.337Z,50
2016-02-29T07:34:00.497Z,50
2016-02-29T07:35:00.515Z,50
2016-02-29T07:36:00.517Z,50
2016-02-29T07:37:00.520Z,50
2016-02-29T07:38:00.523Z,50
2016-02-29T07:39:00.525Z,50
2016-02-29T07:40:00.545Z,50
2016-02-29T07:41:00.547Z,50
2016-02-29T07:42:00.550Z,55
2016-02-29T07:43:00.567Z,55
2016-02-29T07:44:00.570Z,55
2016-02-29T07:45:00.573Z,55
2016-02-29T07:48:58.850Z,55
2016-02-29T07:49:49.868Z,55
2016-02-29T07:50:49.839Z,60
2016-02-29T07:51:49.841Z,60
2016-02-29T07:52:49.876Z,60
2016-02-29T07:53:49.879Z,60
2016-02-29T07:54:49.866Z,60
2016-02-29T07:55:49.899Z,60
2016-02-29T07:56:50.184Z,60
2016-02-29T07:57:49.890Z,65
2016-02-29T07:58:49.893Z,65
2016-02-29T07:59:49.910Z,65
2016-02-29T08:00:49.929Z,65
2016-02-29T08:01:49.915Z,65
2016-02-29T08:02:49.918Z,65
2016-02-29T08:03:49.936Z,70
2016-02-29T08:04:49.955Z,70
2016-02-29T08:05:49.943Z,75
2016-02-29T08:06:49.945Z,90
2016-02-29T08:07:49.947Z,185
2016-02-29T08:08:49.966Z,300
2016-02-29T08:09:49.984Z,325
2016-02-29T08:10:50.003Z,350
2016-02-29T08:11:50.006Z,355
2016-02-29T08:12:50.023Z,355
2016-02-29T08:13:50.026Z,365
2016-02-29T08:14:50.013Z,375
2016-02-29T08:17:45.943Z,385
2016-02-29T08:17:58.599Z,385
2016-02-29T08:18:58.633Z,390
2016-02-29T08:19:58.621Z,400
2016-02-29T08:20:58.623Z,405
2016-02-29T08:21:58.641Z,410
2016-02-29T08:22:58.643Z,415
2016-02-29T08:23:58.694Z,425
2016-02-29T08:24:58.681Z,430
2016-02-29T08:25:58.683Z,430
2016-02-29T08:26:58.702Z,435
2016-02-29T08:27:58.721Z,430
2016-02-29T08:28:58.738Z,365
2016-02-29T08:29:58.725Z,380
2016-02-29T08:30:58.743Z,460
2016-02-29T08:31:58.747Z,475
2016-02-29T08:32:58.765Z,485
2016-02-29T08:33:58.799Z,480
2016-02-29T08:34:58.786Z,480
2016-02-29T08:35:58.820Z,485
2016-02-29T08:36:58.806Z,490
2016-02-29T08:37:58.825Z,495
2016-02-29T08:38:58.843Z,495
2016-02-29T08:39:58.690Z,500
2016-02-29T08:40:58.881Z,510
2016-02-29T08:41:58.898Z,510
2016-02-29T08:42:58.901Z,505
2016-02-29T08:43:58.903Z,505
2016-02-29T08:44:58.923Z,520
2016-02-29T08:49:39.716Z,555
2016-02-29T08:49:52.388Z,565
2016-02-29T08:50:52.391Z,565
2016-02-29T08:51:52.409Z,590
2016-02-29T08:52:52.428Z,580
2016-02-29T08:53:52.447Z,555
2016-02-29T08:54:52.433Z,420
2016-02-29T08:55:52.499Z,290
2016-02-29T08:56:52.470Z,225
2016-02-29T08:57:52.519Z,220
2016-02-29T08:58:52.490Z,220
2016-02-29T08:59:52.524Z,225
2016-02-29T09:00:52.513Z,225
2016-02-29T09:01:52.562Z,225
2016-02-29T09:02:52.549Z,225
2016-02-29T09:03:52.551Z,220
2016-02-29T09:04:52.584Z,225
2016-02-29T09:05:52.623Z,220
2016-02-29T09:06:52.606Z,220
2016-02-29T09:07:52.608Z,220
2016-02-29T09:08:52.627Z,235
2016-02-29T09:09:52.629Z,370
2016-02-29T09:10:52.678Z,560
2016-02-29T09:11:52.649Z,640
2016-02-29T09:12:52.699Z,640
2016-02-29T09:13:52.686Z,635
2016-02-29T09:14:52.721Z,640
2016-02-29T09:21:21.924Z,640
2016-02-29T09:22:21.943Z,620
2016-02-29T09:23:21.945Z,645
2016-02-29T09:24:21.995Z,655
2016-02-29T09:25:21.965Z,620
2016-02-29T09:26:22.015Z,620
2016-02-29T09:27:21.988Z,625
2016-02-29T09:28:22.021Z,610
2016-02-29T09:29:22.040Z,630
2016-02-29T09:30:22.042Z,600
2016-02-29T09:31:22.060Z,600
2016-02-29T09:32:22.063Z,605
2016-02-29T09:33:22.082Z,615
2016-02-29T09:34:22.100Z,615
2016-02-29T09:35:22.103Z,620
2016-02-29T09:36:22.136Z,635
2016-02-29T09:37:22.123Z,595
2016-02-29T09:38:22.126Z,605
2016-02-29T09:39:22.161Z,625
2016-02-29T09:40:22.163Z,605
2016-02-29T09:41:22.181Z,495
2016-02-29T09:42:22.215Z,280
2016-02-29T09:43:22.233Z,135
2016-02-29T09:44:22.235Z,125
2016-02-29T09:46:33.885Z,120
2016-02-29T09:46:46.557Z,120
2016-02-29T10:18:04.404Z,90
2016-02-29T10:18:17.049Z,90
2016-02-29T10:19:17.067Z,95
2016-02-29T10:20:17.070Z,90
2016-02-29T10:21:17.072Z,90
2016-02-29T10:22:17.075Z,95
2016-02-29T10:23:17.139Z,90
2016-02-29T10:24:17.095Z,90
2016-02-29T10:25:17.114Z,90
2016-02-29T10:26:17.101Z,90
2016-02-29T10:27:17.134Z,90
2016-02-29T10:28:17.200Z,90
2016-02-29T10:29:17.125Z,90
2016-02-29T10:30:17.143Z,90
2016-02-29T10:31:17.161Z,90
2016-02-29T10:32:17.148Z,90
2016-02-29T10:33:17.182Z,90
2016-02-29T10:34:17.169Z,90
2016-02-29T10:35:17.203Z,90
2016-02-29T10:36:17.191Z,90
2016-02-29T10:37:17.193Z,90
2016-02-29T10:38:17.196Z,90
2016-02-29T10:39:17.199Z,90
2016-02-29T10:40:17.216Z,85
2016-02-29T10:41:17.219Z,85
2016-02-29T10:42:17.222Z,90
2016-02-29T10:43:17.349Z,80
2016-02-29T10:44:17.384Z,70
2016-02-29T10:45:26.262Z,85
2016-02-29T10:46:17.311Z,85
2016-02-29T10:47:17.267Z,80
2016-02-29T10:48:17.316Z,85
2016-02-29T10:49:17.273Z,80
2016-02-29T10:50:17.290Z,80
2016-02-29T10:51:17.340Z,85
2016-02-29T10:52:17.312Z,80
2016-02-29T10:53:17.329Z,80
2016-02-29T10:54:17.317Z,80
2016-02-29T10:55:17.367Z,80
2016-02-29T10:56:17.337Z,80
2016-02-29T10:57:17.340Z,80
2016-02-29T10:58:17.406Z,80
2016-02-29T10:59:17.377Z,80
2016-02-29T11:00:17.489Z,80
2016-02-29T11:01:17.367Z,80
2016-02-29T11:02:17.370Z,80
2016-02-29T11:03:17.372Z,75
2016-02-29T11:04:17.391Z,80
2016-02-29T11:05:17.445Z,80
2016-02-29T11:06:17.398Z,75
2016-02-29T11:07:17.390Z,80
2016-02-29T11:08:17.428Z,80
2016-02-29T11:09:17.389Z,80
2016-02-29T11:10:17.411Z,75
2016-02-29T11:11:17.373Z,75
2016-02-29T11:12:17.388Z,80
2016-02-29T11:13:17.262Z,75
2016-02-29T11:14:17.400Z,80
2016-02-29T11:16:32.696Z,60
2016-02-29T11:17:32.713Z,75
2016-02-29T11:18:32.698Z,75
2016-02-29T11:19:32.700Z,70
2016-02-29T11:20:32.733Z,65
2016-02-29T11:21:32.719Z,75
2016-02-29T11:22:32.737Z,70
2016-02-29T11:23:32.707Z,70
2016-02-29T11:24:32.756Z,70
2016-02-29T11:25:32.744Z,70
2016-02-29T11:26:32.777Z,70
2016-02-29T11:27:32.763Z,75
2016-02-29T11:28:32.750Z,75
2016-02-29T11:29:32.799Z,70
2016-02-29T11:30:32.770Z,70
2016-02-29T11:31:32.773Z,70
2016-02-29T11:32:32.791Z,70
2016-02-29T11:33:32.794Z,70
2016-02-29T11:34:32.812Z,70
2016-02-29T11:35:32.846Z,70
2016-02-29T11:36:32.896Z,70
2016-02-29T11:37:32.820Z,65
2016-02-29T11:38:32.854Z,65
2016-02-29T11:39:32.872Z,65
2016-02-29T11:40:32.828Z,65
2016-02-29T11:41:32.862Z,65
2016-02-29T11:42:32.880Z,70
2016-02-29T11:43:32.852Z,70
2016-02-29T11:44:32.729Z,70
2016-02-29T11:46:04.185Z,65
2016-02-29T11:46:32.875Z,65
2016-02-29T11:47:32.910Z,65
2016-02-29T11:48:32.881Z,65
2016-02-29T11:49:32.915Z,65
2016-02-29T11:50:32.918Z,65
2016-02-29T11:51:32.920Z,65
2016-02-29T11:52:32.954Z,65
2016-02-29T11:53:32.942Z,65
2016-02-29T11:54:32.991Z,55
2016-02-29T11:55:32.947Z,60
2016-02-29T11:56:32.965Z,65
2016-02-29T11:57:32.983Z,65
2016-02-29T11:58:32.955Z,65
2016-02-29T11:59:32.973Z,65
2016-02-29T12:00:32.992Z,60
2016-02-29T12:01:33.009Z,60
2016-02-29T12:02:32.997Z,65
2016-02-29T12:03:32.999Z,65
2016-02-29T12:04:33.002Z,60
2016-02-29T12:05:33.005Z,60
2016-02-29T12:06:33.008Z,60
2016-02-29T12:07:33.042Z,60
2016-02-29T12:08:33.028Z,60
2016-02-29T12:09:33.063Z,60
2016-02-29T12:10:33.033Z,60
2016-02-29T12:11:33.068Z,60
2016-02-29T12:12:33.055Z,60
2016-02-29T12:13:33.058Z,60
2016-02-29T12:14:32.919Z,60
2016-02-29T12:21:00.515Z,55
2016-02-29T12:22:00.517Z,55
2016-02-29T12:23:00.520Z,55
2016-02-29T12:24:00.538Z,55
2016-02-29T12:25:00.556Z,55
2016-02-29T12:26:00.559Z,55
2016-02-29T12:27:00.545Z,55
2016-02-29T12:28:00.548Z,55
2016-02-29T12:29:00.567Z,55
2016-02-29T12:30:00.569Z,55
2016-02-29T12:31:00.587Z,55
2016-02-29T12:32:00.590Z,55
2016-02-29T12:33:00.577Z,55
2016-02-29T12:34:00.440Z,55
2016-02-29T12:35:00.598Z,55
2016-02-29T12:36:00.617Z,55
2016-02-29T12:37:00.620Z,55
2016-02-29T12:38:00.638Z,55
2016-02-29T12:39:00.641Z,50
2016-02-29T12:40:00.627Z,55
2016-02-29T12:41:00.647Z,50
2016-02-29T12:42:00.664Z,50
2016-02-29T12:43:00.667Z,55
2016-02-29T12:44:00.669Z,50
2016-02-29T12:45:00.672Z,50
2016-02-29T12:52:30.741Z,50
2016-02-29T12:52:43.382Z,50
2016-02-29T12:53:43.399Z,50
2016-02-29T12:54:43.402Z,50
2016-02-29T12:55:43.437Z,50
2016-02-29T12:56:43.423Z,50
2016-02-29T12:57:43.457Z,50
2016-02-29T12:58:43.444Z,50
2016-02-29T12:59:43.431Z,50
2016-02-29T13:00:43.434Z,50
2016-02-29T13:01:43.437Z,50
2016-02-29T13:02:43.470Z,50
2016-02-29T13:03:43.473Z,50
2016-02-29T13:04:43.476Z,50
2016-02-29T13:05:43.485Z,50
2016-02-29T13:06:43.503Z,50
2016-02-29T13:07:43.506Z,50
2016-02-29T13:08:43.492Z,50
2016-02-29T13:09:43.511Z,50
2016-02-29T13:10:43.498Z,50
2016-02-29T13:11:43.517Z,50
2016-02-29T13:12:43.520Z,50
2016-02-29T13:13:43.553Z,50
2016-02-29T13:14:43.556Z,50
2016-02-29T13:20:38.072Z,50
2016-02-29T13:20:50.744Z,50
2016-02-29T13:21:50.730Z,55
2016-02-29T13:22:50.733Z,65
2016-02-29T13:23:50.752Z,115
2016-02-29T13:24:50.771Z,185
2016-02-29T13:25:50.774Z,225
2016-02-29T13:26:50.791Z,105
2016-02-29T13:27:50.779Z,245
2016-02-29T13:28:50.781Z,270
2016-02-29T13:29:50.799Z,135
2016-02-29T13:30:50.802Z,120
2016-02-29T13:31:50.836Z,100
2016-02-29T13:32:50.854Z,80
2016-02-29T13:33:50.841Z,75
2016-02-29T13:34:50.860Z,95
2016-02-29T13:35:50.862Z,90
2016-02-29T13:36:50.849Z,120
2016-02-29T13:37:50.852Z,105
2016-02-29T13:38:50.887Z,80
2016-02-29T13:39:50.873Z,75
2016-02-29T13:40:50.876Z,65
2016-02-29T13:41:50.878Z,65
2016-02-29T13:42:50.898Z,75
2016-02-29T13:43:50.759Z,85
2016-02-29T13:44:51.387Z,115
2016-02-29T13:50:14.133Z,50
2016-02-29T13:50:26.790Z,50
2016-02-29T13:51:26.809Z,45
2016-02-29T13:52:26.843Z,45
2016-02-29T13:53:26.814Z,45
2016-02-29T13:54:26.848Z,45
2016-02-29T13:55:26.819Z,45
2016-02-29T13:56:26.839Z,45
2016-02-29T13:57:26.857Z,40
2016-02-29T13:58:26.844Z,40
2016-02-29T13:59:26.846Z,40
2016-02-29T14:00:26.849Z,40
2016-02-29T14:01:26.898Z,40
2016-02-29T14:02:26.871Z,40
2016-02-29T14:03:26.873Z,40
2016-02-29T14:04:26.891Z,40
2016-02-29T14:05:26.909Z,40
2016-02-29T14:06:26.943Z,40
2016-02-29T14:07:26.914Z,40
2016-02-29T14:08:26.948Z,40
2016-02-29T14:09:26.920Z,40
2016-02-29T14:10:26.923Z,40
2016-02-29T14:11:26.940Z,40
2016-02-29T14:12:26.943Z,40
2016-02-29T14:13:26.945Z,40
2016-02-29T14:14:26.948Z,40
2016-02-29T14:18:36.447Z,40
2016-02-29T14:19:16.212Z,40
2016-02-29T14:20:16.231Z,40
2016-02-29T14:21:16.218Z,35
2016-02-29T14:22:16.252Z,35
2016-02-29T14:23:16.223Z,35
2016-02-29T14:24:16.241Z,35
2016-02-29T14:25:16.260Z,35
2016-02-29T14:26:16.262Z,35
2016-02-29T14:27:16.281Z,35
2016-02-29T14:28:16.283Z,35
2016-02-29T14:29:16.271Z,35
2016-02-29T14:30:16.288Z,35
2016-02-29T14:31:16.307Z,35
2016-02-29T14:32:16.294Z,35
2016-02-29T14:33:16.563Z,35
2016-02-29T14:34:16.299Z,35
2016-02-29T14:35:16.302Z,35
2016-02-29T14:36:16.320Z,35
2016-02-29T14:37:16.308Z,35
2016-02-29T14:38:16.170Z,35
2016-02-29T14:39:16.329Z,35
2016-02-29T14:40:16.332Z,35
2016-02-29T14:41:16.365Z,35
2016-02-29T14:42:16.368Z,35
2016-02-29T14:43:16.371Z,35
2016-02-29T14:44:16.373Z,35
2016-02-29T14:48:10.540Z,35
2016-02-29T14:48:23.244Z,35
2016-02-29T14:49:23.215Z,35
2016-02-29T14:50:23.217Z,35
2016-02-29T14:51:23.236Z,35
2016-02-29T14:52:23.270Z,30
2016-02-29T14:53:23.257Z,30
2016-02-29T14:54:23.260Z,30
2016-02-29T14:55:23.262Z,30
2016-02-29T14:56:23.265Z,30
2016-02-29T14:57:23.252Z,30
2016-02-29T14:58:23.505Z,30
2016-02-29T14:59:23.351Z,30
2016-02-29T15:00:23.432Z,30
2016-02-29T15:01:23.310Z,30
2016-02-29T15:02:23.296Z,30
2016-02-29T15:03:23.330Z,30
2016-02-29T15:04:23.333Z,30
2016-02-29T15:05:23.336Z,30
2016-02-29T15:06:23.932Z,30
2016-02-29T15:07:23.326Z,30
2016-02-29T15:08:23.344Z,30
2016-02-29T15:09:23.346Z,30
2016-02-29T15:10:23.350Z,30
2016-02-29T15:11:23.399Z,30
2016-02-29T15:12:23.355Z,30
2016-02-29T15:13:23.420Z,30
2016-02-29T15:14:23.392Z,30
2016-02-29T15:16:26.022Z,30
2016-02-29T15:16:38.712Z,30
2016-02-29T15:17:38.528Z,30
2016-02-29T15:18:38.780Z,30
2016-02-29T15:19:38.689Z,30
2016-02-29T15:20:38.769Z,25
2016-02-29T15:21:38.569Z,25
2016-02-29T15:22:38.775Z,25
2016-02-29T15:23:38.747Z,40
2016-02-29T15:24:38.796Z,25
2016-02-29T15:25:38.908Z,25
2016-02-29T15:26:39.176Z,25
2016-02-29T15:27:39.242Z,25
2016-02-29T15:28:39.214Z,30
2016-02-29T15:29:39.216Z,30
2016-02-29T15:30:39.265Z,30
2016-02-29T15:31:39.252Z,30
2016-02-29T15:32:39.411Z,30
2016-02-29T15:33:39.446Z,30
2016-02-29T15:34:39.324Z,30
2016-02-29T15:35:39.279Z,30
2016-02-29T15:36:39.234Z,30
2016-02-29T15:37:39.097Z,30
2016-02-29T15:38:39.224Z,25
2016-02-29T15:39:39.212Z,25
2016-02-29T15:40:39.308Z,25
2016-02-29T15:41:39.373Z,25
2016-02-29T15:42:39.188Z,25
2016-02-29T15:43:39.285Z,25
2016-02-29T15:44:39.147Z,25
2016-02-29T15:47:33.293Z,25
2016-02-29T15:47:46.498Z,25
2016-02-29T15:48:46.564Z,25
2016-02-29T15:49:46.598Z,25
2016-02-29T15:50:46.491Z,25
2016-02-29T15:51:46.525Z,25
2016-02-29T15:52:46.606Z,25
2016-02-29T15:53:46.889Z,25
2016-02-29T15:54:47.033Z,25
2016-02-29T15:55:46.473Z,25
2016-02-29T15:56:46.664Z,25
2016-02-29T15:57:46.666Z,25
2016-02-29T15:58:46.653Z,25
2016-02-29T15:59:46.546Z,25
2016-02-29T16:00:46.456Z,25
2016-02-29T16:01:46.552Z,25
2016-02-29T16:02:46.758Z,20
2016-02-29T16:03:46.744Z,20
2016-02-29T16:04:46.529Z,20
2016-02-29T16:05:46.564Z,20